BSO weather

Basco Airport
Basco, Batanes Province, Philippines

Public forecast

Using degrees Celsius for public forecast. Weather courtesy of forecast.io.

Closest aviation weather report (METAR) to Basco Airport

Closest report is Hong Kong International Airport, 464.4 nm (860.1 km) WNW. Retrieved 2019/10/24 03:30 UTC (0 seconds ago):

VHHH 240330Z 01005KT 9999 FEW030 29/19 Q1016 NOSIG

Closest aviation forecast (TAF) to Basco Airport

Closest forecast is Hong Kong International Airport, 464.4 nm (860.1 km) WNW. Retrieved 2019-10-24 00:25 UTC (3 hours ago):

TAF VHHH 232300Z 2400/2506 09010KT 9000 FEW030 TX30/2406Z TX29/2506Z TN24/2422Z TEMPO 2400/2405 03010KT TEMPO 2405/2408 32010KT TEMPO 2418/2503 03010KT